createdAt,value
2017-06-22T00:00:53.018Z,27.5
2017-06-22T00:01:42.221Z,27.51
2017-06-22T00:02:30.280Z,27.55
2017-06-22T00:03:19.415Z,27.51
2017-06-22T00:04:08.727Z,27.55
2017-06-22T00:04:57.684Z,27.59
2017-06-22T00:05:46.030Z,27.44
2017-06-22T00:06:35.470Z,27.49
2017-06-22T00:07:23.909Z,27.49
2017-06-22T00:08:13.040Z,27.47
2017-06-22T00:09:01.798Z,27.43
2017-06-22T00:09:50.458Z,27.43
2017-06-22T00:10:39.170Z,27.4
2017-06-22T00:11:27.672Z,27.36
2017-06-22T00:12:16.391Z,27.36
2017-06-22T00:13:04.972Z,27.36
2017-06-22T00:13:53.866Z,27.39
2017-06-22T00:14:40.740Z,27.31
2017-06-22T00:15:26.766Z,27.37
2017-06-22T00:16:15.308Z,27.37
2017-06-22T00:17:03.666Z,27.36
2017-06-22T00:17:48.854Z,27.36
2017-06-22T00:18:29.332Z,27.39
2017-06-22T00:19:09.872Z,27.37
2017-06-22T00:19:50.341Z,27.41
2017-06-22T00:20:30.960Z,27.37
2017-06-22T00:21:11.516Z,27.36
2017-06-22T00:21:51.972Z,27.34
2017-06-22T00:22:32.540Z,27.29
2017-06-22T00:23:13.024Z,27.32
2017-06-22T00:23:53.502Z,27.25
2017-06-22T00:24:34.044Z,27.24
2017-06-22T00:25:14.484Z,27.21
2017-06-22T00:25:54.973Z,27.27
2017-06-22T00:26:35.443Z,27.29
2017-06-22T00:27:15.960Z,27.21
2017-06-22T00:27:56.432Z,27.28
2017-06-22T00:28:36.987Z,27.24
2017-06-22T00:29:17.443Z,27.24
2017-06-22T00:29:57.958Z,27.28
2017-06-22T00:30:38.430Z,27.24
2017-06-22T00:31:18.981Z,27.21
2017-06-22T00:31:59.490Z,27.27
2017-06-22T00:32:39.998Z,27.27
2017-06-22T00:33:20.501Z,27.25
2017-06-22T00:34:01.041Z,27.18
2017-06-22T00:34:41.473Z,27.28
2017-06-22T00:35:21.960Z,27.28
2017-06-22T00:36:02.431Z,27.27
2017-06-22T00:36:42.949Z,27.19
2017-06-22T00:37:23.433Z,27.25
2017-06-22T00:38:03.922Z,27.14
2017-06-22T00:38:44.383Z,27.13
2017-06-22T00:39:24.991Z,27.18
2017-06-22T00:40:05.521Z,27.17
2017-06-22T00:40:46.009Z,27.17
2017-06-22T00:41:26.573Z,27.14
2017-06-22T00:42:07.033Z,27.18
2017-06-22T00:42:47.639Z,27.12
2017-06-22T00:43:28.073Z,27.19
2017-06-22T00:44:08.541Z,27.25
2017-06-22T00:44:49.244Z,27.13
2017-06-22T00:45:29.710Z,27.14
2017-06-22T00:46:10.158Z,27.12
2017-06-22T00:46:50.750Z,27
2017-06-22T00:47:31.880Z,27.03
2017-06-22T00:48:12.411Z,27.03
2017-06-22T00:48:52.929Z,27.07
2017-06-22T00:49:33.347Z,26.99
2017-06-22T00:50:13.971Z,26.99
2017-06-22T00:50:54.375Z,26.88
2017-06-22T00:51:34.863Z,26.88
2017-06-22T00:52:15.362Z,26.88
2017-06-22T00:52:55.897Z,26.94
2017-06-22T00:53:36.497Z,26.95
2017-06-22T00:54:16.994Z,26.88
2017-06-22T00:54:57.524Z,26.84
2017-06-22T00:55:38.009Z,26.89
2017-06-22T00:56:18.460Z,26.81
2017-06-22T00:56:59.079Z,26.91
2017-06-22T00:57:39.562Z,26.92
2017-06-22T00:58:20.173Z,26.87
2017-06-22T00:59:00.693Z,26.89
2017-06-22T00:59:41.248Z,26.89
2017-06-22T01:00:21.668Z,26.89
2017-06-22T01:01:02.184Z,26.81
2017-06-22T01:01:42.753Z,26.77
2017-06-22T01:02:23.307Z,26.89
2017-06-22T01:03:03.909Z,26.77
2017-06-22T01:03:44.340Z,26.84
2017-06-22T01:04:24.800Z,26.84
2017-06-22T01:05:05.349Z,26.81
2017-06-22T01:05:45.807Z,26.67
2017-06-22T01:06:26.326Z,26.67
2017-06-22T01:07:06.775Z,26.73
2017-06-22T01:07:47.321Z,26.8
2017-06-22T01:08:27.882Z,26.81
2017-06-22T01:09:08.368Z,26.82
2017-06-22T01:09:48.814Z,26.72
2017-06-22T01:10:29.374Z,26.69
2017-06-22T01:11:09.949Z,26.69
2017-06-22T01:11:50.503Z,26.77
2017-06-22T01:12:31.052Z,26.67
2017-06-22T01:13:11.616Z,26.67
2017-06-22T01:13:52.114Z,26.73
2017-06-22T01:14:32.668Z,26.67
2017-06-22T01:15:13.224Z,26.48
2017-06-22T01:15:53.712Z,26.37
2017-06-22T01:16:34.274Z,26.33
2017-06-22T01:17:14.667Z,26.37
2017-06-22T01:17:55.201Z,26.33
2017-06-22T01:18:35.696Z,26.39
2017-06-22T01:19:16.225Z,26.36
2017-06-22T01:19:56.752Z,26.39
2017-06-22T01:20:37.254Z,26.37
2017-06-22T01:21:17.755Z,26.4
2017-06-22T01:21:58.247Z,26.4
2017-06-22T01:22:38.764Z,26.4
2017-06-22T01:23:19.208Z,26.43
2017-06-22T01:23:59.735Z,26.43
2017-06-22T01:24:40.242Z,26.4
2017-06-22T01:25:20.757Z,26.45
2017-06-22T01:26:01.267Z,26.47
2017-06-22T01:26:41.787Z,26.39
2017-06-22T01:27:22.308Z,26.39
2017-06-22T01:28:02.855Z,26.5
2017-06-22T01:28:43.411Z,26.5
2017-06-22T01:29:23.908Z,26.5
2017-06-22T01:30:04.424Z,26.43
2017-06-22T01:30:44.962Z,26.35
2017-06-22T01:31:25.439Z,26.39
2017-06-22T01:33:20.723Z,26.36
2017-06-22T01:34:08.692Z,26.39
2017-06-22T01:34:57.353Z,26.33
2017-06-22T01:35:46.036Z,26.35
2017-06-22T01:37:45.474Z,26.39
2017-06-22T01:38:34.095Z,26.39
2017-06-22T01:39:21.770Z,26.36
2017-06-22T01:40:10.960Z,26.48
2017-06-22T01:40:59.103Z,26.37
2017-06-22T01:41:47.620Z,26.43
2017-06-22T01:42:36.331Z,26.36
2017-06-22T01:43:25.104Z,26.35
2017-06-22T01:44:13.742Z,26.35
2017-06-22T01:45:02.817Z,26.17
2017-06-22T01:45:51.228Z,26.18
2017-06-22T01:46:40.160Z,26.17
2017-06-22T01:47:28.626Z,26.15
2017-06-22T01:48:17.437Z,26.13
2017-06-22T01:49:06.312Z,26.25
2017-06-22T01:49:55.057Z,26.17
2017-06-22T01:50:43.618Z,26.26
2017-06-22T01:51:32.191Z,26.25
2017-06-22T01:52:21.006Z,26.21
2017-06-22T01:53:09.507Z,26.21
2017-06-22T01:53:58.654Z,26.21
2017-06-22T01:54:47.454Z,26.29
2017-06-22T01:55:36.308Z,26.25
2017-06-22T01:56:24.791Z,26.13
2017-06-22T01:57:13.482Z,26.13
2017-06-22T01:58:02.404Z,26.12
2017-06-22T01:58:50.661Z,26.09
2017-06-22T01:59:39.099Z,26.13
2017-06-22T02:00:28.014Z,26.15
2017-06-22T02:01:07.140Z,26.23
2017-06-22T02:01:47.688Z,26.09
2017-06-22T02:02:28.202Z,26.09
2017-06-22T02:03:08.694Z,26.15
2017-06-22T02:03:49.224Z,26.12
2017-06-22T02:04:29.749Z,26.2
2017-06-22T02:05:10.236Z,26.1
2017-06-22T02:05:50.730Z,26.02
2017-06-22T02:06:31.258Z,26.06
2017-06-22T02:07:11.784Z,26.02
2017-06-22T02:07:52.291Z,26.06
2017-06-22T02:08:32.738Z,26.1
2017-06-22T02:09:13.241Z,26.07
2017-06-22T02:09:53.717Z,26.15
2017-06-22T02:10:34.269Z,26.15
2017-06-22T02:11:14.755Z,26.09
2017-06-22T02:11:55.258Z,26.09
2017-06-22T02:12:35.721Z,26.17
2017-06-22T02:13:16.230Z,26.06
2017-06-22T02:13:56.732Z,26.13
2017-06-22T02:14:37.177Z,26.1
2017-06-22T02:15:17.800Z,26.15
2017-06-22T02:15:58.263Z,26.17
2017-06-22T02:16:38.795Z,26.15
2017-06-22T02:17:19.297Z,26.13
2017-06-22T02:17:59.734Z,26.01
2017-06-22T02:18:40.260Z,26.07
2017-06-22T02:19:20.882Z,25.99
2017-06-22T02:20:01.381Z,26.01
2017-06-22T02:20:42.001Z,26.01
2017-06-22T02:21:22.500Z,25.85
2017-06-22T02:22:03.175Z,25.91
2017-06-22T02:22:43.734Z,25.9
2017-06-22T02:23:24.292Z,25.8
2017-06-22T02:24:04.869Z,25.79
2017-06-22T02:24:45.817Z,25.79
2017-06-22T02:25:26.359Z,25.88
2017-06-22T02:26:06.878Z,25.91
2017-06-22T02:26:47.394Z,25.9
2017-06-22T02:27:27.835Z,25.88
2017-06-22T02:28:08.331Z,25.9
2017-06-22T02:28:48.801Z,25.8
2017-06-22T02:29:29.402Z,25.82
2017-06-22T02:30:09.905Z,25.76
2017-06-22T02:30:50.447Z,25.73
2017-06-22T02:31:31.053Z,25.76
2017-06-22T02:32:11.565Z,25.85
2017-06-22T02:32:52.076Z,25.9
2017-06-22T02:33:32.543Z,25.8
2017-06-22T02:34:13.074Z,25.9
2017-06-22T02:34:53.592Z,25.79
2017-06-22T02:35:34.181Z,25.79
2017-06-22T02:36:14.617Z,25.8
2017-06-22T02:36:55.101Z,25.85
2017-06-22T02:37:35.731Z,25.79
2017-06-22T02:38:16.237Z,25.77
2017-06-22T02:38:56.802Z,25.87
2017-06-22T02:39:37.382Z,25.83
2017-06-22T02:40:17.877Z,25.91
2017-06-22T02:40:58.402Z,25.91
2017-06-22T02:41:38.940Z,25.91
2017-06-22T02:42:19.390Z,25.77
2017-06-22T02:42:59.889Z,25.87
2017-06-22T02:43:40.478Z,25.77
2017-06-22T02:44:21.022Z,25.76
2017-06-22T02:45:01.479Z,25.88
2017-06-22T02:45:42.004Z,25.94
2017-06-22T02:46:22.552Z,25.87
2017-06-22T02:47:03.050Z,25.9
2017-06-22T02:47:43.518Z,25.75
2017-06-22T02:48:24.064Z,25.91
2017-06-22T02:49:04.568Z,25.79
2017-06-22T02:49:44.997Z,25.92
2017-06-22T02:50:25.475Z,25.92
2017-06-22T02:51:06.031Z,25.88
2017-06-22T02:51:46.683Z,25.88
2017-06-22T02:52:27.345Z,25.83
2017-06-22T02:53:07.792Z,25.87
2017-06-22T02:53:48.345Z,25.88
2017-06-22T02:54:28.862Z,25.94
2017-06-22T02:55:09.350Z,25.91
2017-06-22T02:55:49.825Z,25.88
2017-06-22T02:56:30.334Z,25.94
2017-06-22T02:57:10.837Z,25.9
2017-06-22T02:57:51.644Z,25.95
2017-06-22T02:58:32.139Z,25.92
2017-06-22T02:59:12.976Z,25.91
2017-06-22T02:59:53.360Z,25.92
2017-06-22T03:00:34.080Z,25.87
2017-06-22T03:01:14.705Z,25.88
2017-06-22T03:01:55.258Z,25.9
2017-06-22T03:02:35.722Z,25.92
2017-06-22T03:03:16.258Z,25.88
2017-06-22T03:03:56.848Z,25.9
2017-06-22T03:04:37.298Z,25.8
2017-06-22T03:05:18.304Z,25.75
2017-06-22T03:05:58.803Z,25.79
2017-06-22T03:06:39.167Z,25.77
2017-06-22T03:07:19.812Z,25.77
2017-06-22T03:08:00.323Z,25.77
2017-06-22T03:08:40.821Z,25.8
2017-06-22T03:09:21.401Z,25.83
2017-06-22T03:10:01.859Z,25.72
2017-06-22T03:10:42.370Z,25.79
2017-06-22T03:11:22.876Z,25.77
2017-06-22T03:12:03.413Z,25.9
2017-06-22T03:14:02.235Z,25.83
2017-06-22T03:14:49.553Z,25.9
2017-06-22T03:15:37.754Z,25.79
2017-06-22T03:16:26.919Z,25.76
2017-06-22T03:17:15.703Z,25.67
2017-06-22T03:18:04.031Z,25.65
2017-06-22T03:18:52.716Z,25.62
2017-06-22T03:19:41.308Z,25.6
2017-06-22T03:20:30.012Z,25.62
2017-06-22T03:21:16.146Z,25.57
2017-06-22T03:21:56.646Z,25.55
2017-06-22T03:22:37.174Z,25.57
2017-06-22T03:23:17.662Z,25.62
2017-06-22T03:23:58.118Z,25.61
2017-06-22T03:24:38.676Z,25.64
2017-06-22T03:25:19.148Z,25.64
2017-06-22T03:25:59.685Z,25.61
2017-06-22T03:26:40.295Z,25.64
2017-06-22T03:27:20.801Z,25.67
2017-06-22T03:28:01.311Z,25.69
2017-06-22T03:28:41.756Z,25.65
2017-06-22T03:29:22.374Z,25.64
2017-06-22T03:30:02.847Z,25.67
2017-06-22T03:30:43.363Z,25.8
2017-06-22T03:31:23.826Z,25.76
2017-06-22T03:32:04.371Z,25.72
2017-06-22T03:32:44.870Z,25.72
2017-06-22T03:33:25.382Z,25.79
2017-06-22T03:34:05.894Z,25.76
2017-06-22T03:34:46.345Z,25.72
2017-06-22T03:35:26.909Z,25.73
2017-06-22T03:36:07.395Z,25.72
2017-06-22T03:36:47.919Z,25.72
2017-06-22T03:37:28.343Z,25.64
2017-06-22T03:38:08.876Z,25.72
2017-06-22T03:38:49.371Z,25.7
2017-06-22T03:39:29.896Z,25.77
2017-06-22T03:40:10.430Z,25.7
2017-06-22T03:40:50.885Z,25.79
2017-06-22T03:41:31.387Z,25.76
2017-06-22T03:42:11.881Z,25.77
2017-06-22T03:42:53.360Z,25.77
2017-06-22T03:43:33.811Z,25.91
2017-06-22T03:44:14.297Z,25.95
2017-06-22T03:44:54.805Z,25.97
2017-06-22T03:45:35.296Z,25.99
2017-06-22T03:46:15.832Z,25.88
2017-06-22T03:46:56.317Z,25.91
2017-06-22T03:47:36.851Z,25.95
2017-06-22T03:48:17.381Z,25.92
2017-06-22T03:48:57.899Z,26.02
2017-06-22T03:49:38.394Z,25.98
2017-06-22T03:50:18.889Z,25.97
2017-06-22T03:50:59.346Z,25.98
2017-06-22T03:51:39.894Z,26.02
2017-06-22T03:52:20.356Z,26.12
2017-06-22T03:53:00.849Z,25.99
2017-06-22T03:53:41.349Z,25.98
2017-06-22T03:54:21.873Z,26.05
2017-06-22T03:55:02.372Z,25.98
2017-06-22T03:55:42.832Z,26.07
2017-06-22T03:56:23.335Z,26.05
2017-06-22T03:57:03.857Z,26.05
2017-06-22T03:57:44.321Z,25.95
2017-06-22T03:58:24.798Z,25.94
2017-06-22T03:59:05.311Z,25.87
2017-06-22T03:59:45.831Z,25.88
2017-06-22T04:00:26.272Z,25.9
2017-06-22T04:01:06.832Z,25.97
2017-06-22T04:01:47.294Z,26.05
2017-06-22T04:02:27.767Z,25.97
2017-06-22T04:03:08.283Z,26.02
2017-06-22T04:03:48.795Z,26.05
2017-06-22T04:04:29.309Z,25.92
2017-06-22T04:05:09.869Z,26.01
2017-06-22T04:05:50.284Z,26.01
2017-06-22T04:06:30.955Z,26.02
2017-06-22T04:07:11.426Z,26.02
2017-06-22T04:07:52.004Z,26.02
2017-06-22T04:08:32.465Z,26.07
2017-06-22T04:09:12.982Z,26.12
2017-06-22T04:09:53.482Z,26.18
2017-06-22T04:10:33.992Z,26.21
2017-06-22T04:11:14.514Z,26.26
2017-06-22T04:11:54.992Z,26.35
2017-06-22T04:12:35.546Z,26.43
2017-06-22T04:13:16.097Z,26.33
2017-06-22T04:13:56.606Z,26.35
2017-06-22T04:14:37.078Z,26.33
2017-06-22T04:15:17.570Z,26.39
2017-06-22T04:15:58.139Z,26.43
2017-06-22T04:16:38.581Z,26.35
2017-06-22T04:17:19.084Z,26.33
2017-06-22T04:17:59.552Z,26.43
2017-06-22T04:18:40.046Z,26.36
2017-06-22T04:19:20.609Z,26.48
2017-06-22T04:20:01.171Z,26.44
2017-06-22T04:20:41.699Z,26.4
2017-06-22T04:21:22.138Z,26.35
2017-06-22T04:22:02.638Z,26.33
2017-06-22T04:22:44.024Z,26.28
2017-06-22T04:23:24.734Z,26.2
2017-06-22T04:24:05.183Z,26.2
2017-06-22T04:24:45.676Z,26.17
2017-06-22T04:25:26.278Z,25.99
2017-06-22T04:26:06.752Z,25.99
2017-06-22T04:26:47.272Z,25.91
2017-06-22T04:27:27.764Z,26.06
2017-06-22T04:28:08.255Z,25.99
2017-06-22T04:28:48.767Z,25.9
2017-06-22T04:29:29.261Z,25.99
2017-06-22T04:30:09.846Z,26.05
2017-06-22T04:30:50.344Z,26.2
2017-06-22T04:31:30.878Z,26.12
2017-06-22T04:32:11.352Z,26.15
2017-06-22T04:32:51.890Z,26.12
2017-06-22T04:33:32.337Z,26.15
2017-06-22T04:34:12.951Z,26.12
2017-06-22T04:34:53.368Z,26.2
2017-06-22T04:35:33.848Z,26.18
2017-06-22T04:36:14.366Z,26.17
2017-06-22T04:36:55.043Z,26.05
2017-06-22T04:37:35.635Z,26.15
2017-06-22T04:38:16.121Z,26.1
2017-06-22T04:38:56.635Z,26.05
2017-06-22T04:39:37.136Z,26.13
2017-06-22T04:40:17.647Z,26.12
2017-06-22T04:40:58.104Z,26.15
2017-06-22T04:41:38.619Z,26.15
2017-06-22T04:42:19.227Z,26.37
2017-06-22T04:42:59.739Z,26.6
2017-06-22T04:43:40.228Z,27.13
2017-06-22T04:44:20.768Z,27.99
2017-06-22T04:45:01.193Z,28.93
2017-06-22T04:45:41.718Z,29.73
2017-06-22T04:46:22.240Z,30.07
2017-06-22T04:47:02.734Z,30.1
2017-06-22T04:47:43.259Z,29.87
2017-06-22T04:48:23.739Z,29.34
2017-06-22T04:49:04.183Z,28.86
2017-06-22T04:49:44.699Z,28.3
2017-06-22T04:50:25.180Z,27.85
2017-06-22T04:51:05.670Z,27.63
2017-06-22T04:51:46.155Z,27.37
2017-06-22T04:52:26.717Z,27.36
2017-06-22T04:53:07.211Z,27.21
2017-06-22T04:53:47.705Z,27.21
2017-06-22T04:54:28.438Z,27.14
2017-06-22T04:55:09.029Z,27
2017-06-22T04:55:49.659Z,27.03
2017-06-22T04:56:30.114Z,27.09
2017-06-22T04:57:10.636Z,26.99
2017-06-22T04:57:51.110Z,26.97
2017-06-22T04:58:31.619Z,27.06
2017-06-22T04:59:12.114Z,26.85
2017-06-22T04:59:52.599Z,26.77
2017-06-22T05:00:33.076Z,26.7
2017-06-22T05:01:13.588Z,26.8
2017-06-22T05:01:54.316Z,26.84
2017-06-22T05:02:34.914Z,26.82
2017-06-22T05:03:15.376Z,26.87
2017-06-22T05:03:55.894Z,26.81
2017-06-22T05:04:36.413Z,26.8
2017-06-22T05:05:16.851Z,26.72
2017-06-22T05:05:57.509Z,26.54
2017-06-22T05:06:37.942Z,26.52
2017-06-22T05:07:18.442Z,26.63
2017-06-22T05:07:58.910Z,26.62
2017-06-22T05:08:39.455Z,26.63
2017-06-22T05:10:38.525Z,26.73
2017-06-22T05:11:20.921Z,26.55
2017-06-22T05:12:01.340Z,26.55
2017-06-22T05:12:41.888Z,26.66
2017-06-22T05:13:22.434Z,26.67
2017-06-22T05:14:02.943Z,26.55
2017-06-22T05:14:43.472Z,26.6
2017-06-22T05:15:23.980Z,26.58
2017-06-22T05:16:04.526Z,26.54
2017-06-22T05:16:44.994Z,26.58
2017-06-22T05:17:25.491Z,26.62
2017-06-22T05:18:05.994Z,26.7
2017-06-22T05:18:46.490Z,26.8
2017-06-22T05:19:27.033Z,26.85
2017-06-22T05:20:07.589Z,27.03
2017-06-22T05:20:48.047Z,27.04
2017-06-22T05:21:28.542Z,27.12
2017-06-22T05:22:09.131Z,27.04
2017-06-22T05:22:49.678Z,27.06
2017-06-22T05:23:30.229Z,27
2017-06-22T05:24:10.675Z,27.02
2017-06-22T05:24:51.178Z,26.92
2017-06-22T05:25:31.693Z,26.88
2017-06-22T05:26:12.274Z,26.94
2017-06-22T05:26:52.700Z,26.99
2017-06-22T05:27:33.231Z,27.36
2017-06-22T05:28:13.796Z,27.96
2017-06-22T05:28:54.298Z,28.54
2017-06-22T05:29:34.806Z,28.64
2017-06-22T05:30:15.297Z,28.34
2017-06-22T05:30:55.919Z,28.04
2017-06-22T05:31:36.326Z,27.88
2017-06-22T05:32:16.937Z,27.72
2017-06-22T05:32:57.495Z,27.74
2017-06-22T05:33:38.006Z,27.84
2017-06-22T05:34:18.487Z,27.87
2017-06-22T05:34:59.044Z,27.97
2017-06-22T05:35:39.502Z,27.84
2017-06-22T05:36:20.050Z,27.82
2017-06-22T05:37:00.537Z,27.87
2017-06-22T05:37:41.071Z,27.84
2017-06-22T05:38:21.583Z,27.79
2017-06-22T05:39:02.078Z,27.7
2017-06-22T05:39:42.591Z,27.72
2017-06-22T05:40:23.124Z,27.72
2017-06-22T05:41:03.593Z,27.69
2017-06-22T05:41:44.072Z,27.57
2017-06-22T05:42:24.590Z,27.49
2017-06-22T05:43:05.218Z,27.43
2017-06-22T05:43:45.692Z,27.36
2017-06-22T05:44:27.055Z,27.25
2017-06-22T05:45:07.547Z,27.27
2017-06-22T05:45:48.105Z,27.28
2017-06-22T05:46:28.713Z,27.14
2017-06-22T05:47:09.253Z,27.04
2017-06-22T05:47:49.753Z,26.94
2017-06-22T05:48:30.293Z,26.87
2017-06-22T05:49:10.824Z,26.85
2017-06-22T05:49:52.023Z,26.82
2017-06-22T05:50:32.720Z,26.81
2017-06-22T05:51:13.114Z,26.69
2017-06-22T05:51:54.257Z,26.69
2017-06-22T05:52:34.980Z,26.72
2017-06-22T05:53:15.519Z,26.87
2017-06-22T05:53:56.059Z,26.95
2017-06-22T05:54:36.578Z,27.22
2017-06-22T05:55:17.177Z,27.39
2017-06-22T05:55:57.648Z,27.44
2017-06-22T05:56:38.750Z,27.81
2017-06-22T05:57:19.273Z,28.4
2017-06-22T05:58:00.080Z,29.49
2017-06-22T05:58:40.621Z,30.64
2017-06-22T05:59:21.179Z,31.57
2017-06-22T06:00:01.700Z,32.33
2017-06-22T06:00:42.903Z,32.84
2017-06-22T06:01:24.337Z,33.21
2017-06-22T06:02:06.045Z,33.6
2017-06-22T06:02:46.559Z,33.72
2017-06-22T06:03:27.196Z,33.53
2017-06-22T06:04:07.776Z,33.56
2017-06-22T06:04:48.332Z,33.42
2017-06-22T06:05:29.050Z,33.21
2017-06-22T06:06:09.595Z,33.26
2017-06-22T06:06:51.223Z,32.94
2017-06-22T06:07:39.188Z,32.45
2017-06-22T06:08:19.897Z,32.3
2017-06-22T06:09:02.805Z,32.21
2017-06-22T06:09:43.323Z,31.89
2017-06-22T06:10:23.913Z,31.7
2017-06-22T06:11:04.612Z,31.66
2017-06-22T06:11:45.803Z,31.62
2017-06-22T06:12:26.454Z,31.68
2017-06-22T06:13:07.183Z,31.58
2017-06-22T06:13:47.752Z,31.57
2017-06-22T06:14:28.300Z,31.39
2017-06-22T06:15:09.191Z,31.36
2017-06-22T06:15:49.742Z,31.51
2017-06-22T06:16:30.402Z,31.39
2017-06-22T06:17:10.815Z,31.5
2017-06-22T06:17:51.473Z,31.54
2017-06-22T06:18:31.918Z,31.61
2017-06-22T06:19:12.420Z,31.68
2017-06-22T06:19:52.962Z,31.65
2017-06-22T06:20:33.433Z,31.84
2017-06-22T06:21:13.952Z,31.81
2017-06-22T06:21:54.506Z,31.8
2017-06-22T06:22:34.996Z,31.89
2017-06-22T06:23:15.529Z,31.76
2017-06-22T06:23:56.093Z,31.81
2017-06-22T06:24:36.558Z,31.73
2017-06-22T06:25:17.106Z,31.86
2017-06-22T06:25:57.605Z,31.78
2017-06-22T06:26:38.138Z,31.72
2017-06-22T06:27:18.813Z,31.65
2017-06-22T06:27:59.424Z,31.69
2017-06-22T06:28:39.947Z,31.69
2017-06-22T06:29:20.461Z,31.73
2017-06-22T06:30:00.956Z,31.69
2017-06-22T06:30:41.456Z,31.86
2017-06-22T06:31:22.223Z,31.99
2017-06-22T06:32:02.687Z,32.01
2017-06-22T06:32:43.240Z,31.92
2017-06-22T06:33:23.705Z,31.84
2017-06-22T06:34:04.246Z,31.66
2017-06-22T06:34:44.724Z,31.73
2017-06-22T06:35:25.171Z,31.72
2017-06-22T06:36:05.647Z,31.62
2017-06-22T06:36:46.185Z,31.63
2017-06-22T06:37:26.653Z,31.51
2017-06-22T06:38:07.226Z,31.63
2017-06-22T06:38:47.704Z,31.69
2017-06-22T06:39:28.222Z,31.86
2017-06-22T06:40:08.728Z,32.01
2017-06-22T06:40:49.248Z,32.06
2017-06-22T06:41:29.778Z,32.18
2017-06-22T06:42:10.275Z,32.25
2017-06-22T06:42:50.831Z,32.4
2017-06-22T06:43:31.443Z,32.26
2017-06-22T06:44:11.862Z,32.32
2017-06-22T06:44:52.379Z,32.37
2017-06-22T06:45:32.907Z,32.37
2017-06-22T06:46:13.406Z,32.23
2017-06-22T06:46:53.901Z,32.35
2017-06-22T06:47:34.385Z,32.35
2017-06-22T06:48:14.909Z,32.29
2017-06-22T06:48:55.435Z,32.43
2017-06-22T06:49:35.960Z,32.29
2017-06-22T06:50:16.439Z,32.33
2017-06-22T06:50:57.014Z,32.21
2017-06-22T06:51:37.595Z,32.07
2017-06-22T06:52:18.045Z,31.89
2017-06-22T06:52:58.603Z,32.01
2017-06-22T06:53:39.121Z,31.91
2017-06-22T06:54:19.654Z,31.66
2017-06-22T06:55:00.160Z,31.8
2017-06-22T06:55:40.712Z,31.92
2017-06-22T06:56:21.169Z,31.92
2017-06-22T06:57:01.683Z,31.8
2017-06-22T06:57:42.160Z,31.91
2017-06-22T06:58:22.639Z,32
2017-06-22T06:59:03.176Z,31.86
2017-06-22T06:59:43.698Z,31.88
2017-06-22T07:00:24.187Z,32
2017-06-22T07:01:04.663Z,31.84
2017-06-22T07:01:45.202Z,31.68
2017-06-22T07:02:25.786Z,31.57
2017-06-22T07:03:06.299Z,31.48
2017-06-22T07:03:46.826Z,31.58
2017-06-22T07:04:27.320Z,31.58
2017-06-22T07:05:07.872Z,31.65
2017-06-22T07:05:48.380Z,31.84
2017-06-22T07:06:28.907Z,32
2017-06-22T07:07:09.360Z,32.01
2017-06-22T07:07:49.972Z,31.95
2017-06-22T07:08:30.443Z,32.01
2017-06-22T07:09:11.053Z,32.14
2017-06-22T07:09:51.459Z,32.22
2017-06-22T07:10:31.946Z,32.23
2017-06-22T07:11:12.471Z,32.3
2017-06-22T07:11:52.999Z,32.3
2017-06-22T07:14:06.305Z,32.47
2017-06-22T07:16:04.452Z,32.69
2017-06-22T07:16:45.047Z,32.65
2017-06-22T07:17:25.614Z,32.66
2017-06-22T07:18:06.101Z,32.77
2017-06-22T07:18:46.620Z,32.69
2017-06-22T07:19:27.149Z,32.69
2017-06-22T07:20:07.646Z,32.81
2017-06-22T07:20:48.149Z,32.78
2017-06-22T07:21:28.669Z,32.75
2017-06-22T07:22:09.217Z,32.84
2017-06-22T07:22:49.738Z,32.87
2017-06-22T07:23:30.218Z,32.87
2017-06-22T07:24:10.736Z,32.78
2017-06-22T07:24:51.233Z,32.59
2017-06-22T07:25:31.714Z,32.67
2017-06-22T07:26:12.271Z,32.67
2017-06-22T07:26:52.793Z,32.57
2017-06-22T07:27:33.279Z,32.69
2017-06-22T07:28:13.778Z,32.75
2017-06-22T07:28:54.269Z,32.47
2017-06-22T07:29:34.733Z,32.44
2017-06-22T07:30:15.282Z,32.44
2017-06-22T07:30:56.678Z,32.29
2017-06-22T07:31:37.180Z,32.13
2017-06-22T07:32:17.679Z,32.08
2017-06-22T07:32:58.170Z,32.18
2017-06-22T07:33:38.746Z,32.28
2017-06-22T07:34:19.257Z,32.32
2017-06-22T07:34:59.778Z,32.45
2017-06-22T07:35:40.232Z,32.33
2017-06-22T07:36:20.751Z,32.38
2017-06-22T07:37:01.217Z,32.5
2017-06-22T07:37:41.719Z,32.5
2017-06-22T07:38:22.213Z,32.48
2017-06-22T07:39:02.707Z,32.56
2017-06-22T07:39:43.305Z,32.28
2017-06-22T07:40:23.743Z,32.26
2017-06-22T07:41:04.304Z,32.11
2017-06-22T07:41:44.785Z,32.15
2017-06-22T07:42:25.312Z,32.21
2017-06-22T07:43:05.767Z,32.07
2017-06-22T07:43:46.271Z,32.14
2017-06-22T07:44:26.761Z,32.22
2017-06-22T07:45:07.235Z,32.29
2017-06-22T07:45:47.722Z,32.21
2017-06-22T07:46:28.307Z,32.15
2017-06-22T07:47:08.807Z,32.18
2017-06-22T07:47:49.291Z,32.35
2017-06-22T07:48:29.827Z,32.3
2017-06-22T07:49:10.316Z,32.22
2017-06-22T07:49:50.785Z,32.35
2017-06-22T07:50:31.315Z,32.3
2017-06-22T07:51:11.873Z,32.26
2017-06-22T07:51:52.377Z,32.19
2017-06-22T07:52:32.850Z,32.18
2017-06-22T07:53:13.381Z,32.19
2017-06-22T07:53:53.917Z,32.21
2017-06-22T07:54:34.388Z,32.3
2017-06-22T07:55:14.878Z,32.4
2017-06-22T07:55:55.349Z,32.45
2017-06-22T07:56:35.874Z,32.4
2017-06-22T07:57:16.458Z,32.3
2017-06-22T07:57:57.017Z,32.3
2017-06-22T07:58:37.504Z,32.32
2017-06-22T07:59:17.931Z,32.3
2017-06-22T07:59:58.515Z,32.26
2017-06-22T08:00:39.258Z,32.38
2017-06-22T08:01:20.127Z,32.6
2017-06-22T08:02:01.440Z,32.63
2017-06-22T08:02:41.973Z,32.72
2017-06-22T08:03:22.651Z,32.56
2017-06-22T08:04:03.153Z,32.56
2017-06-22T08:04:43.641Z,32.52
2017-06-22T08:05:24.187Z,32.59
2017-06-22T08:06:04.717Z,32.51
2017-06-22T08:06:45.341Z,32.45
2017-06-22T08:07:25.896Z,32.3
2017-06-22T08:08:06.373Z,32.26
2017-06-22T08:08:46.852Z,32.29
2017-06-22T08:09:27.363Z,32.32
2017-06-22T08:10:07.853Z,32.51
2017-06-22T08:10:48.353Z,32.47
2017-06-22T08:11:28.861Z,32.55
2017-06-22T08:12:09.348Z,32.45
2017-06-22T08:12:49.885Z,32.48
2017-06-22T08:13:30.386Z,32.48
2017-06-22T08:14:10.890Z,32.6
2017-06-22T08:14:51.409Z,32.5
2017-06-22T08:15:31.891Z,32.62
2017-06-22T08:16:12.417Z,32.62
2017-06-22T08:16:52.947Z,32.56
2017-06-22T08:17:33.451Z,32.6
2017-06-22T08:18:13.973Z,32.56
2017-06-22T08:18:54.457Z,32.62
2017-06-22T08:19:34.985Z,32.7
2017-06-22T08:20:15.527Z,32.82
2017-06-22T08:20:56.059Z,32.79
2017-06-22T08:21:36.566Z,32.84
2017-06-22T08:22:17.041Z,32.82
2017-06-22T08:22:57.595Z,32.89
2017-06-22T08:23:38.093Z,32.97
2017-06-22T08:24:18.634Z,33.03
2017-06-22T08:24:59.133Z,33.09
2017-06-22T08:25:39.649Z,32.88
2017-06-22T08:26:20.190Z,32.79
2017-06-22T08:27:00.678Z,32.88
2017-06-22T08:27:41.189Z,33
2017-06-22T08:28:22.392Z,32.94
2017-06-22T08:29:02.942Z,32.96
2017-06-22T08:29:43.440Z,33
2017-06-22T08:30:23.961Z,33.04
2017-06-22T08:31:04.446Z,32.97
2017-06-22T08:31:44.986Z,32.85
2017-06-22T08:32:25.497Z,32.88
2017-06-22T08:33:06.045Z,32.89
2017-06-22T08:33:46.608Z,32.89
2017-06-22T08:34:27.103Z,32.82
2017-06-22T08:35:07.574Z,32.88
2017-06-22T08:35:48.155Z,32.87
2017-06-22T08:36:28.670Z,32.79
2017-06-22T08:37:09.236Z,32.84
2017-06-22T08:37:49.705Z,32.77
2017-06-22T08:38:30.214Z,32.87
2017-06-22T08:39:10.798Z,32.79
2017-06-22T08:39:51.423Z,32.82
2017-06-22T08:40:31.998Z,32.72
2017-06-22T08:41:12.508Z,32.7
2017-06-22T08:41:53.112Z,32.77
2017-06-22T08:42:33.571Z,32.67
2017-06-22T08:43:14.115Z,32.66
2017-06-22T08:43:54.665Z,32.75
2017-06-22T08:44:35.166Z,32.72
2017-06-22T08:45:15.633Z,32.65
2017-06-22T08:45:56.134Z,32.79
2017-06-22T08:46:36.650Z,32.7
2017-06-22T08:47:17.164Z,32.87
2017-06-22T08:47:57.660Z,32.79
2017-06-22T08:48:38.143Z,32.78
2017-06-22T08:49:18.672Z,32.74
2017-06-22T08:49:59.232Z,32.78
2017-06-22T08:50:39.747Z,32.78
2017-06-22T08:51:20.234Z,32.84
2017-06-22T08:52:00.720Z,32.89
2017-06-22T08:52:41.268Z,32.92
2017-06-22T08:53:21.760Z,32.96
2017-06-22T08:54:02.282Z,32.97
2017-06-22T08:54:42.746Z,32.92
2017-06-22T08:55:23.255Z,32.97
2017-06-22T08:56:03.859Z,32.97
2017-06-22T08:56:44.322Z,33.03
2017-06-22T08:57:24.845Z,33
2017-06-22T08:58:05.405Z,32.84
2017-06-22T08:58:45.864Z,32.72
2017-06-22T08:59:26.326Z,32.65
2017-06-22T09:00:06.859Z,32.66
2017-06-22T09:00:47.440Z,32.67
2017-06-22T09:01:27.891Z,32.77